createdAt,value
2019-03-13T00:01:04.111Z,149771.20
2019-03-13T00:02:11.591Z,149780.08
2019-03-13T00:03:16.874Z,149768.66
2019-03-13T00:04:22.476Z,149780.66
2019-03-13T00:05:27.387Z,149803.52
2019-03-13T00:06:32.781Z,149802.23
2019-03-13T00:07:37.780Z,149826.95
2019-03-13T00:08:42.704Z,149837.11
2019-03-13T00:09:47.968Z,149811.75
2019-03-13T00:10:53.234Z,149830.14
2019-03-13T00:11:58.854Z,149784.48
2019-03-13T00:13:06.204Z,149785.12
2019-03-13T00:14:12.765Z,149786.41
2019-03-13T00:15:18.001Z,149795.28
2019-03-13T00:16:26.559Z,149778.80
2019-03-13T00:17:31.857Z,149729.38
2019-03-13T00:18:37.484Z,149735.06
2019-03-13T00:19:42.743Z,149745.22
2019-03-13T00:20:48.376Z,149792.72
2019-03-13T00:21:53.975Z,149792.09
2019-03-13T00:22:59.295Z,149775.61
2019-03-13T00:24:04.229Z,149769.92
2019-03-13T00:25:09.143Z,149775.61
2019-03-13T00:26:14.798Z,149773.06
2019-03-13T00:27:20.376Z,149771.20
2019-03-13T00:28:26.028Z,149754.09
2019-03-13T00:29:31.731Z,149762.97
2019-03-13T00:30:37.621Z,149770.56
2019-03-13T00:31:43.229Z,149807.92
2019-03-13T00:32:48.853Z,149792.72
2019-03-13T00:33:54.464Z,149790.81
2019-03-13T00:35:00.074Z,149771.84
2019-03-13T00:36:05.638Z,149790.81
2019-03-13T00:37:11.274Z,149793.36
2019-03-13T00:38:16.889Z,149801.59
2019-03-13T00:39:22.586Z,149798.41
2019-03-13T00:40:27.880Z,149787.67
2019-03-13T00:41:33.495Z,149762.97
2019-03-13T00:42:38.715Z,149757.22
2019-03-13T00:43:44.037Z,149775.61
2019-03-13T00:44:49.732Z,149740.75
2019-03-13T00:45:55.340Z,149742.03
2019-03-13T00:47:00.984Z,149742.66
2019-03-13T00:48:06.580Z,149759.78
2019-03-13T00:49:12.008Z,149754.72
2019-03-13T00:50:23.575Z,149720.50
2019-03-13T00:51:29.165Z,149736.34
2019-03-13T00:52:34.444Z,149743.30
2019-03-13T00:53:40.021Z,149711.63
2019-03-13T00:54:45.652Z,149701.48
2019-03-13T00:55:51.257Z,149710.36
2019-03-13T00:56:56.946Z,149735.06
2019-03-13T00:58:02.550Z,149721.09
2019-03-13T00:59:08.197Z,149703.41
2019-03-13T01:00:12.917Z,149724.92
2019-03-13T01:01:19.750Z,149693.25
2019-03-13T01:02:25.106Z,149702.13
2019-03-13T01:03:40.421Z,149690.70
2019-03-13T01:04:46.359Z,149696.39
2019-03-13T01:05:54.253Z,149707.81
2019-03-13T01:06:59.252Z,149704.63
2019-03-13T01:08:04.847Z,149714.13
2019-03-13T01:09:10.513Z,149711.00
2019-03-13T01:10:15.490Z,149676.78
2019-03-13T01:11:21.068Z,149652.72
2019-03-13T01:12:26.650Z,149651.44
2019-03-13T01:13:32.275Z,149674.87
2019-03-13T01:14:37.921Z,149630.52
2019-03-13T01:15:43.581Z,149657.77
2019-03-13T01:16:49.195Z,149669.19
2019-03-13T01:17:54.833Z,149663.45
2019-03-13T01:19:00.442Z,149663.45
2019-03-13T01:20:05.364Z,149648.89
2019-03-13T01:21:10.988Z,149624.19
2019-03-13T01:22:16.593Z,149633.70
2019-03-13T01:23:21.833Z,149635.61
2019-03-13T01:24:27.468Z,149620.37
2019-03-13T01:25:33.095Z,149569.06
2019-03-13T01:26:38.689Z,149559.61
2019-03-13T01:27:44.351Z,149572.89
2019-03-13T01:28:49.981Z,149570.98
2019-03-13T01:29:55.630Z,149588.08
2019-03-13T01:31:16.791Z,149584.31
2019-03-13T01:32:26.273Z,149580.48
2019-03-13T01:33:31.877Z,149532.95
2019-03-13T01:34:37.296Z,149527.86
2019-03-13T01:35:42.634Z,149512.67
2019-03-13T01:36:48.275Z,149525.36
2019-03-13T01:37:53.875Z,149485.44
2019-03-13T01:38:59.447Z,149498.13
2019-03-13T01:40:04.388Z,149503.81
2019-03-13T01:41:09.992Z,149498.77
2019-03-13T01:42:15.616Z,149494.94
2019-03-13T01:43:21.219Z,149493.03
2019-03-13T01:44:26.830Z,149510.77
2019-03-13T01:45:32.437Z,149487.98
2019-03-13T01:46:38.113Z,149506.36
2019-03-13T01:47:43.359Z,149486.08
2019-03-13T01:48:48.941Z,149501.27
2019-03-13T01:49:54.577Z,149491.81
2019-03-13T01:51:00.385Z,149488.63
2019-03-13T01:52:05.374Z,149500.63
2019-03-13T01:53:11.011Z,149484.16
2019-03-13T01:54:16.617Z,149463.30
2019-03-13T01:55:22.321Z,149476.58
2019-03-13T01:56:27.972Z,149491.81
2019-03-13T01:57:33.568Z,149493.67
2019-03-13T01:58:39.714Z,149503.17
2019-03-13T01:59:45.280Z,149484.80
2019-03-13T02:00:50.922Z,149462.66
2019-03-13T02:01:59.105Z,149454.44
2019-03-13T02:03:04.334Z,149470.25
2019-03-13T02:04:10.085Z,149465.20
2019-03-13T02:05:15.023Z,149465.20
2019-03-13T02:06:20.636Z,149458.25
2019-03-13T02:07:26.243Z,149472.16
2019-03-13T02:08:31.956Z,149451.25
2019-03-13T02:09:37.195Z,149453.80
2019-03-13T02:10:42.815Z,149434.16
2019-03-13T02:11:48.410Z,149452.53
2019-03-13T02:12:56.727Z,149449.97
2019-03-13T02:14:02.311Z,149450.61
2019-03-13T02:15:07.224Z,149437.97
2019-03-13T02:16:12.965Z,149429.75
2019-03-13T02:17:18.244Z,149415.84
2019-03-13T02:18:23.865Z,149436.70
2019-03-13T02:19:29.553Z,149429.75
2019-03-13T02:20:35.240Z,149448.11
2019-03-13T02:21:40.525Z,149447.47
2019-03-13T02:22:45.760Z,149437.34
2019-03-13T02:23:51.344Z,149403.16
2019-03-13T02:24:57.014Z,149403.16
2019-03-13T02:26:02.711Z,149391.11
2019-03-13T02:27:08.305Z,149374.02
2019-03-13T02:28:13.972Z,149384.16
2019-03-13T02:29:19.564Z,149387.97
2019-03-13T02:30:25.026Z,149360.75
2019-03-13T02:31:30.648Z,149392.38
2019-03-13T02:32:37.058Z,149386.70
2019-03-13T02:33:42.753Z,149379.75
2019-03-13T02:34:48.451Z,149370.89
2019-03-13T02:35:54.068Z,149369.61
2019-03-13T02:36:59.692Z,149365.16
2019-03-13T02:38:05.267Z,149366.44
2019-03-13T02:39:10.957Z,149331.61
2019-03-13T02:40:15.881Z,149291.77
2019-03-13T02:41:21.533Z,149282.27
2019-03-13T02:42:27.130Z,149281.00
2019-03-13T02:43:32.748Z,149274.67
2019-03-13T02:44:38.349Z,149269.64
2019-03-13T02:45:44.863Z,149255.69
2019-03-13T02:46:50.526Z,149244.97
2019-03-13T02:47:55.872Z,149261.41
2019-03-13T02:49:01.517Z,149234.84
2019-03-13T02:50:06.540Z,149222.80
2019-03-13T02:51:12.173Z,149178.56
2019-03-13T02:52:17.764Z,149179.78
2019-03-13T02:53:23.408Z,149208.89
2019-03-13T02:54:29.008Z,149234.20
2019-03-13T02:55:34.654Z,149210.81
2019-03-13T02:56:40.332Z,149217.75
2019-03-13T02:57:45.968Z,149177.92
2019-03-13T02:58:51.552Z,149184.86
2019-03-13T02:59:57.185Z,149152.63
2019-03-13T03:01:07.790Z,149179.14
2019-03-13T03:02:17.715Z,149126.05
2019-03-13T03:03:32.661Z,149144.98
2019-03-13T03:04:37.942Z,149124.14
2019-03-13T03:05:43.569Z,149100.12
2019-03-13T03:06:49.225Z,149098.84
2019-03-13T03:07:54.929Z,149080.50
2019-03-13T03:09:02.775Z,149036.87
2019-03-13T03:10:07.828Z,149060.25
2019-03-13T03:11:13.510Z,149053.94
2019-03-13T03:12:19.161Z,149037.50
2019-03-13T03:13:24.499Z,149030.56
2019-03-13T03:14:30.132Z,149031.83
2019-03-13T03:15:35.801Z,149025.53
2019-03-13T03:16:41.437Z,149034.97
2019-03-13T03:17:47.063Z,149035.59
2019-03-13T03:18:52.873Z,149053.31
2019-03-13T03:19:58.127Z,149027.37
2019-03-13T03:21:03.799Z,149010.31
2019-03-13T03:22:11.700Z,148988.20
2019-03-13T03:23:17.376Z,148951.53
2019-03-13T03:24:22.984Z,148952.16
2019-03-13T03:25:28.584Z,148920.53
2019-03-13T03:26:34.175Z,148957.88
2019-03-13T03:27:39.773Z,148966.73
2019-03-13T03:28:45.026Z,148914.86
2019-03-13T03:29:50.642Z,148902.83
2019-03-13T03:30:56.310Z,148914.86
2019-03-13T03:32:01.994Z,148881.36
2019-03-13T03:33:08.035Z,148888.31
2019-03-13T03:34:14.661Z,148917.34
2019-03-13T03:35:20.452Z,148880.72
2019-03-13T03:36:26.112Z,148902.19
2019-03-13T03:37:32.077Z,148903.47
2019-03-13T03:38:37.864Z,148895.25
2019-03-13T03:39:43.684Z,148899.06
2019-03-13T03:40:48.997Z,148876.28
2019-03-13T03:41:54.605Z,148847.88
2019-03-13T03:43:00.226Z,148869.34
2019-03-13T03:44:05.872Z,148883.22
2019-03-13T03:45:10.827Z,148857.94
2019-03-13T03:46:16.476Z,148844.06
2019-03-13T03:47:22.234Z,148849.73
2019-03-13T03:48:27.880Z,148863.03
2019-03-13T03:49:33.263Z,148845.34
2019-03-13T03:50:38.968Z,148868.06
2019-03-13T03:51:44.891Z,148833.94
2019-03-13T03:52:50.698Z,148843.42
2019-03-13T03:53:56.305Z,148852.91
2019-03-13T03:55:02.017Z,148873.78
2019-03-13T03:56:07.765Z,148876.91
2019-03-13T03:57:13.490Z,148876.28
2019-03-13T03:58:19.225Z,148857.94
2019-03-13T03:59:24.966Z,148841.52
2019-03-13T04:00:30.664Z,148813.13
2019-03-13T04:01:36.334Z,148833.31
2019-03-13T04:02:41.994Z,148790.34
2019-03-13T04:03:47.682Z,148794.16
2019-03-13T04:04:53.097Z,148791.63
2019-03-13T04:05:58.421Z,148746.80
2019-03-13T04:07:03.763Z,148779.64
2019-03-13T04:08:09.543Z,148792.89
2019-03-13T04:09:15.399Z,148792.89
2019-03-13T04:10:21.117Z,148765.72
2019-03-13T04:11:26.813Z,148762.59
2019-03-13T04:12:32.546Z,148734.78
2019-03-13T04:13:38.922Z,148749.94
2019-03-13T04:14:44.639Z,148760.05
2019-03-13T04:15:50.040Z,148724.03
2019-03-13T04:16:55.712Z,148753.11
2019-03-13T04:18:01.470Z,148750.56
2019-03-13T04:19:07.196Z,148712.06
2019-03-13T04:20:12.286Z,148709.52
2019-03-13T04:21:18.166Z,148751.20
2019-03-13T04:22:23.590Z,148755.66
2019-03-13T04:23:30.235Z,148758.14
2019-03-13T04:24:35.996Z,148738.59
2019-03-13T04:25:41.630Z,148762.59
2019-03-13T04:26:46.983Z,148772.66
2019-03-13T04:27:52.636Z,148746.80
2019-03-13T04:28:58.351Z,148737.33
2019-03-13T04:30:06.998Z,148691.20
2019-03-13T04:31:12.696Z,148695.00
2019-03-13T04:32:18.435Z,148756.88
2019-03-13T04:33:23.457Z,148696.28
2019-03-13T04:34:29.225Z,148656.47
2019-03-13T04:35:35.030Z,148679.81
2019-03-13T04:36:40.764Z,148706.98
2019-03-13T04:37:46.363Z,148691.83
2019-03-13T04:38:51.968Z,148728.47
2019-03-13T04:39:57.546Z,148714.56
2019-03-13T04:41:03.134Z,148640.05
2019-03-13T04:42:08.731Z,148674.78
2019-03-13T04:43:14.358Z,148665.94
2019-03-13T04:44:19.973Z,148689.30
2019-03-13T04:45:25.567Z,148677.95
2019-03-13T04:46:31.134Z,148652.06
2019-03-13T04:47:36.701Z,148645.72
2019-03-13T04:48:42.296Z,148638.14
2019-03-13T04:49:47.888Z,148629.30
2019-03-13T04:50:53.475Z,148641.31
2019-03-13T04:51:59.096Z,148708.87
2019-03-13T04:53:04.674Z,148722.77
2019-03-13T04:54:10.304Z,148683.00
2019-03-13T04:55:15.209Z,148661.55
2019-03-13T04:56:20.791Z,148640.69
2019-03-13T04:57:26.397Z,148636.92
2019-03-13T04:58:32.049Z,148628.08
2019-03-13T04:59:39.678Z,148633.11
2019-03-13T05:00:45.285Z,148631.84
2019-03-13T05:01:50.915Z,148665.31
2019-03-13T05:02:56.167Z,148703.86
2019-03-13T05:04:01.813Z,148688.03
2019-03-13T05:05:06.671Z,148681.09
2019-03-13T05:06:11.624Z,148649.53
2019-03-13T05:07:17.253Z,148645.72
2019-03-13T05:08:44.589Z,148695.64
2019-03-13T05:09:38.422Z,148667.84
2019-03-13T05:10:44.005Z,148686.16
2019-03-13T05:11:51.957Z,148671.02
2019-03-13T05:12:57.604Z,148670.38
2019-03-13T05:14:03.211Z,148657.09
2019-03-13T05:15:08.241Z,148667.84
2019-03-13T05:16:13.804Z,148633.75
2019-03-13T05:17:19.413Z,148612.25
2019-03-13T05:18:24.694Z,148633.75
2019-03-13T05:19:30.323Z,148652.06
2019-03-13T05:20:35.879Z,148677.95
2019-03-13T05:21:41.458Z,148657.09
2019-03-13T05:22:47.050Z,148640.05
2019-03-13T05:23:52.697Z,148616.06
2019-03-13T05:24:58.294Z,148621.73
2019-03-13T05:26:03.871Z,148667.84
2019-03-13T05:27:09.492Z,148664.67
2019-03-13T05:28:15.085Z,148672.88
2019-03-13T05:29:20.721Z,148701.31
2019-03-13T05:30:26.008Z,148681.72
2019-03-13T05:31:31.567Z,148717.09
2019-03-13T05:32:37.169Z,148702.59
2019-03-13T05:33:42.789Z,148684.25
2019-03-13T05:34:48.434Z,148650.16
2019-03-13T05:35:54.056Z,148681.72
2019-03-13T05:36:59.329Z,148689.92
2019-03-13T05:38:04.568Z,148685.53
2019-03-13T05:39:10.823Z,148657.73
2019-03-13T05:40:16.463Z,148679.81
2019-03-13T05:41:22.056Z,148681.09
2019-03-13T05:42:27.658Z,148655.83
2019-03-13T05:43:33.267Z,148668.47
2019-03-13T05:44:38.904Z,148689.30
2019-03-13T05:45:44.562Z,148656.47
2019-03-13T05:46:50.146Z,148680.45
2019-03-13T05:47:55.722Z,148669.11
2019-03-13T05:49:01.582Z,148702.59
2019-03-13T05:50:07.185Z,148700.69
2019-03-13T05:51:12.823Z,148624.28
2019-03-13T05:52:18.462Z,148609.77
2019-03-13T05:53:24.027Z,148626.81
2019-03-13T05:54:29.651Z,148652.70
2019-03-13T05:55:35.255Z,148644.50
2019-03-13T05:56:41.397Z,148674.16
2019-03-13T05:57:47.059Z,148696.88
2019-03-13T05:58:52.605Z,148641.31
2019-03-13T05:59:58.193Z,148693.73
2019-03-13T06:01:03.412Z,148667.20
2019-03-13T06:02:09.051Z,148686.16
2019-03-13T06:03:14.698Z,148689.30
2019-03-13T06:04:20.373Z,148650.16
2019-03-13T06:05:26.030Z,148664.67
2019-03-13T06:06:31.713Z,148668.47
2019-03-13T06:07:37.211Z,148676.06
2019-03-13T06:08:42.844Z,148715.19
2019-03-13T06:09:48.380Z,148717.73
2019-03-13T06:10:54.026Z,148713.92
2019-03-13T06:11:59.629Z,148720.27
2019-03-13T06:13:05.257Z,148707.61
2019-03-13T06:14:10.859Z,148744.89
2019-03-13T06:15:15.868Z,148760.05
2019-03-13T06:16:21.513Z,148761.95
2019-03-13T06:17:27.117Z,148771.44
2019-03-13T06:18:32.704Z,148770.16
2019-03-13T06:19:38.298Z,148774.56
2019-03-13T06:20:43.957Z,148797.34
2019-03-13T06:21:49.511Z,148802.38
2019-03-13T06:22:55.496Z,148805.55
2019-03-13T06:24:01.066Z,148812.48
2019-03-13T06:25:06.018Z,148820.06
2019-03-13T06:26:11.833Z,148824.47
2019-03-13T06:27:17.435Z,148821.97
2019-03-13T06:28:23.018Z,148820.69
2019-03-13T06:29:31.518Z,148787.86
2019-03-13T06:30:34.187Z,148823.23
2019-03-13T06:31:39.804Z,148845.97
2019-03-13T06:32:45.375Z,148825.73
2019-03-13T06:33:51.141Z,148813.13
2019-03-13T06:34:56.724Z,148859.22
2019-03-13T06:36:02.379Z,148847.88
2019-03-13T06:37:07.958Z,148836.48
2019-03-13T06:38:12.884Z,148851.64
2019-03-13T06:39:18.479Z,148873.78
2019-03-13T06:40:24.040Z,148885.77
2019-03-13T06:41:29.649Z,148887.67
2019-03-13T06:42:35.267Z,148909.77
2019-03-13T06:43:40.908Z,148902.19
2019-03-13T06:44:46.838Z,148902.19
2019-03-13T06:45:52.812Z,148908.50
2019-03-13T06:46:58.460Z,148918.63
2019-03-13T06:48:03.740Z,148907.28
2019-03-13T06:49:09.346Z,148915.50
2019-03-13T06:50:15.085Z,148938.28
2019-03-13T06:51:20.721Z,148935.09
2019-03-13T06:52:26.405Z,148947.75
2019-03-13T06:53:31.982Z,148959.73
2019-03-13T06:54:37.630Z,148974.31
2019-03-13T06:55:43.241Z,148964.19
2019-03-13T06:56:48.890Z,148980.63
2019-03-13T06:58:34.939Z,148962.92
2019-03-13T06:59:45.872Z,148970.50
2019-03-13T07:00:52.247Z,148988.84
2019-03-13T07:02:00.320Z,149014.75
2019-03-13T07:03:05.754Z,149016.03
2019-03-13T07:04:11.620Z,149022.97
2019-03-13T07:05:27.990Z,149040.69
2019-03-13T07:08:10.830Z,149025.53
2019-03-13T07:09:18.825Z,149048.27
2019-03-13T07:10:28.647Z,149048.91
2019-03-13T07:11:48.924Z,149055.84
2019-03-13T07:12:54.917Z,149076.73
2019-03-13T07:14:03.284Z,149074.83
2019-03-13T07:16:45.658Z,149112.11
2019-03-13T07:19:29.546Z,149104.53
2019-03-13T07:22:09.404Z,149105.16
2019-03-13T07:25:05.917Z,149147.53
2019-03-13T07:26:14.110Z,149131.72
2019-03-13T07:27:22.567Z,149153.25
2019-03-13T07:28:33.579Z,149162.06
2019-03-13T07:29:41.588Z,149167.78
2019-03-13T07:30:52.474Z,149182.95
2019-03-13T07:32:14.595Z,149169.06
2019-03-13T07:33:25.915Z,149177.28
2019-03-13T07:34:44.083Z,149181.05
2019-03-13T07:35:52.004Z,149203.22
2019-03-13T07:37:16.369Z,149201.95
2019-03-13T07:38:21.794Z,149220.94
2019-03-13T07:39:44.025Z,149203.22
2019-03-13T07:41:00.471Z,149217.75
2019-03-13T07:44:00.398Z,149247.47
2019-03-13T07:45:07.694Z,149269.00
2019-03-13T07:46:18.768Z,149276.59
2019-03-13T07:47:29.453Z,149281.00
2019-03-13T07:48:38.111Z,149290.50
2019-03-13T07:49:48.313Z,149276.59
2019-03-13T07:50:54.725Z,149303.81
2019-03-13T07:53:37.072Z,149327.20
2019-03-13T07:56:31.674Z,149316.44
2019-03-13T07:57:39.992Z,149319.63
2019-03-13T08:00:33.307Z,149346.84
2019-03-13T08:01:41.251Z,149363.94
2019-03-13T08:02:50.195Z,149365.80
2019-03-13T08:03:56.993Z,149391.11
2019-03-13T08:05:16.357Z,149378.47
2019-03-13T08:08:10.449Z,149410.75
2019-03-13T08:09:46.829Z,149413.94
2019-03-13T08:11:20.481Z,149396.20
2019-03-13T08:14:02.608Z,149406.34
2019-03-13T08:15:12.886Z,149412.02
2019-03-13T08:16:18.261Z,149427.20
2019-03-13T08:17:24.449Z,149459.47
2019-03-13T08:20:14.015Z,149453.80
2019-03-13T08:23:00.521Z,149477.84
2019-03-13T08:24:08.384Z,149458.25
2019-03-13T08:25:15.029Z,149499.41
2019-03-13T08:26:20.487Z,149503.81
2019-03-13T08:27:28.378Z,149531.69
2019-03-13T08:28:40.758Z,149536.78
2019-03-13T08:31:24.276Z,149579.84
2019-03-13T08:34:08.962Z,149591.91
2019-03-13T08:35:16.820Z,149633.70
2019-03-13T08:36:22.620Z,149667.91
2019-03-13T08:37:28.922Z,149719.88
2019-03-13T08:38:34.498Z,149740.75
2019-03-13T08:39:45.414Z,149762.33
2019-03-13T08:40:57.317Z,149699.58
2019-03-13T08:42:05.224Z,149654.58
2019-03-13T08:43:11.255Z,149641.94
2019-03-13T08:44:22.361Z,149656.50
2019-03-13T08:45:31.400Z,149649.53
2019-03-13T08:46:37.922Z,149657.13
2019-03-13T08:47:48.397Z,149633.06
2019-03-13T08:48:55.778Z,149615.97
2019-03-13T08:50:04.653Z,149584.31
2019-03-13T08:51:11.523Z,149566.56
2019-03-13T08:52:24.396Z,149572.25
2019-03-13T08:53:29.752Z,149559.61
2019-03-13T08:54:35.672Z,149543.73
2019-03-13T08:55:54.496Z,149545.66
2019-03-13T08:57:00.745Z,149545.66
2019-03-13T08:58:11.604Z,149529.78
2019-03-13T08:59:18.962Z,149534.23
2019-03-13T09:02:01.822Z,149506.36
2019-03-13T09:03:14.387Z,149507.00
2019-03-13T09:06:03.376Z,149550.75
2019-03-13T09:07:12.368Z,149554.52
2019-03-13T09:09:58.391Z,149557.70
2019-03-13T09:11:09.061Z,149593.81
2019-03-13T09:12:16.933Z,149554.52
2019-03-13T09:13:22.831Z,149555.78
2019-03-13T09:16:00.394Z,149580.48
2019-03-13T09:17:11.456Z,149539.97
2019-03-13T09:18:19.276Z,149563.38
2019-03-13T09:19:33.259Z,149565.30
2019-03-13T09:20:44.543Z,149522.19
2019-03-13T09:23:22.927Z,149520.91
2019-03-13T09:24:35.106Z,149545.02
2019-03-13T09:25:44.034Z,149550.75
2019-03-13T09:26:50.474Z,149542.52
2019-03-13T09:28:02.182Z,149564.66
2019-03-13T09:29:08.227Z,149609.00
2019-03-13T09:30:32.317Z,149631.16
2019-03-13T09:31:39.078Z,149643.22
2019-03-13T09:33:05.415Z,149626.75
2019-03-13T09:34:11.819Z,149619.14
2019-03-13T09:37:04.852Z,149672.95
2019-03-13T09:38:26.535Z,149689.44
2019-03-13T09:39:47.955Z,149714.13
2019-03-13T09:40:58.909Z,149766.75
2019-03-13T09:42:08.939Z,149795.28
2019-03-13T09:43:20.163Z,149794.00
2019-03-13T09:44:31.201Z,149844.06
2019-03-13T09:45:45.098Z,149856.12
2019-03-13T09:46:54.795Z,149851.67
2019-03-13T09:48:01.121Z,149800.33
2019-03-13T09:50:42.767Z,149748.98
2019-03-13T09:51:48.358Z,149753.45
2019-03-13T09:52:55.380Z,149707.17
2019-03-13T09:54:00.994Z,149698.94
2019-03-13T09:55:05.779Z,149707.81
2019-03-13T09:56:14.773Z,149700.22
2019-03-13T09:58:58.868Z,149719.23
2019-03-13T10:01:56.398Z,149650.17
2019-03-13T10:03:20.772Z,149706.53
2019-03-13T10:06:03.174Z,149723.00
2019-03-13T10:07:09.158Z,149716.05
2019-03-13T10:08:31.386Z,149723.00
2019-03-13T10:09:38.690Z,149674.87
2019-03-13T10:10:49.735Z,149683.75
2019-03-13T10:11:58.884Z,149693.25
2019-03-13T10:13:14.717Z,149702.13
2019-03-13T10:14:26.831Z,149714.78
2019-03-13T10:15:32.193Z,149696.39
2019-03-13T10:16:38.178Z,149689.44
2019-03-13T10:17:49.206Z,149696.39
2019-03-13T10:20:50.437Z,149725.56
2019-03-13T10:22:24.006Z,149760.41
2019-03-13T10:23:45.485Z,149744.58
2019-03-13T10:24:52.450Z,149795.28
2019-03-13T10:26:00.293Z,149847.25
2019-03-13T10:27:10.892Z,149877.66
2019-03-13T10:28:16.282Z,149918.22
2019-03-13T10:29:25.196Z,149952.47
2019-03-13T10:30:35.130Z,149987.98
2019-03-13T10:31:50.447Z,150005.16
2019-03-13T10:32:59.300Z,150007.72
2019-03-13T10:34:07.230Z,150062.22
2019-03-13T10:35:23.899Z,150083.81
2019-03-13T10:38:14.101Z,150061.59
2019-03-13T10:39:17.657Z,150065.41
2019-03-13T10:40:25.308Z,150099.67
2019-03-13T10:41:32.660Z,150136.48
2019-03-13T10:42:43.634Z,150147.88
2019-03-13T10:43:54.564Z,150159.94
2019-03-13T10:45:18.730Z,150224.66
2019-03-13T10:46:29.833Z,150208.80
2019-03-13T10:47:36.008Z,150176.44
2019-03-13T10:48:45.421Z,150064.14
2019-03-13T10:50:00.737Z,150120.00
2019-03-13T10:52:53.462Z,150159.94
2019-03-13T10:54:04.617Z,150123.77
2019-03-13T10:55:15.424Z,150121.86
2019-03-13T10:56:41.682Z,150087.59
2019-03-13T10:59:21.112Z,149961.34
2019-03-13T11:00:26.603Z,149974.69
2019-03-13T11:03:21.830Z,150015.95
2019-03-13T11:04:46.074Z,150032.44
2019-03-13T11:05:54.305Z,150014.03
2019-03-13T11:07:00.626Z,150022.92
2019-03-13T11:08:06.285Z,150006.44
2019-03-13T11:09:27.665Z,149979.11
2019-03-13T11:12:10.745Z,150067.97
2019-03-13T11:14:53.628Z,150057.17
2019-03-13T11:16:00.315Z,150019.73
2019-03-13T11:17:10.973Z,149946.78
2019-03-13T11:18:21.333Z,149902.37
2019-03-13T11:21:01.150Z,149914.45
2019-03-13T11:23:42.146Z,149918.22
2019-03-13T11:24:51.184Z,149892.22
2019-03-13T11:26:06.223Z,149891.59
2019-03-13T11:27:17.201Z,149855.50
2019-03-13T11:28:23.572Z,149868.78
2019-03-13T11:29:37.440Z,149883.34
2019-03-13T11:32:18.805Z,149890.36
2019-03-13T11:35:03.030Z,149878.94
2019-03-13T11:36:10.088Z,149868.16
2019-03-13T11:37:15.782Z,149881.48
2019-03-13T11:38:25.177Z,149904.30
2019-03-13T11:39:31.435Z,149916.95
2019-03-13T11:40:38.378Z,149946.14
2019-03-13T11:41:43.797Z,149969.59
2019-03-13T11:42:49.300Z,149929.02
2019-03-13T11:44:10.441Z,149931.56
2019-03-13T11:45:15.943Z,149933.44
2019-03-13T11:48:03.643Z,149930.94
2019-03-13T11:50:46.412Z,149960.70
2019-03-13T11:51:51.819Z,149946.14
2019-03-13T11:53:02.751Z,149953.75
2019-03-13T11:54:23.037Z,149923.97
2019-03-13T11:55:34.006Z,149934.06
2019-03-13T11:56:39.376Z,149932.20
2019-03-13T11:57:49.565Z,149942.31
2019-03-13T11:58:54.937Z,149945.50
2019-03-13T12:00:16.112Z,149946.78
2019-03-13T12:01:44.856Z,149961.34
2019-03-13T12:02:41.081Z,149951.83
2019-03-13T12:03:48.362Z,149951.19
2019-03-13T12:04:56.141Z,149918.86
2019-03-13T12:06:03.948Z,149888.45
2019-03-13T12:08:58.911Z,149895.41
2019-03-13T12:11:47.290Z,149932.20
2019-03-13T12:12:55.807Z,149937.25
2019-03-13T12:15:51.045Z,149986.08
2019-03-13T12:17:14.821Z,150001.33
2019-03-13T12:18:37.015Z,149968.31
2019-03-13T12:19:46.266Z,149954.38
2019-03-13T12:20:59.140Z,149943.59
2019-03-13T12:23:48.589Z,149944.86
2019-03-13T12:24:59.528Z,149934.06
2019-03-13T12:26:06.076Z,149943.59
2019-03-13T12:27:16.490Z,149954.38
2019-03-13T12:28:22.230Z,149961.34
2019-03-13T12:29:31.065Z,149976.56
2019-03-13T12:30:42.749Z,149997.50
2019-03-13T12:31:48.473Z,149989.91
2019-03-13T12:33:00.295Z,149967.67
2019-03-13T12:34:05.001Z,149967.67
2019-03-13T12:36:47.579Z,149908.08
2019-03-13T12:38:03.353Z,149911.27
2019-03-13T12:39:11.592Z,149937.89
2019-03-13T12:40:18.038Z,149968.31
2019-03-13T12:41:42.266Z,149968.31
2019-03-13T12:42:48.129Z,149907.48
2019-03-13T12:43:57.501Z,149916.31
2019-03-13T12:45:13.277Z,149918.22
2019-03-13T12:46:24.176Z,149922.69
2019-03-13T12:47:30.496Z,149922.69
2019-03-13T12:48:35.454Z,149883.34
2019-03-13T12:49:46.443Z,149843.42
2019-03-13T12:50:52.326Z,149859.27
2019-03-13T12:53:45.282Z,149818.72
2019-03-13T12:55:03.430Z,149851.03
2019-03-13T12:56:12.707Z,149870.06
2019-03-13T12:57:18.064Z,149850.39
2019-03-13T12:58:23.821Z,149850.39
2019-03-13T12:59:29.222Z,149856.12
2019-03-13T13:00:34.928Z,149822.53
2019-03-13T13:03:35.069Z,149811.11
2019-03-13T13:04:59.310Z,149787.03
2019-03-13T13:06:07.797Z,149809.84
2019-03-13T13:07:13.575Z,149809.20
2019-03-13T13:08:19.749Z,149795.28
2019-03-13T13:11:03.065Z,149797.19
2019-03-13T13:12:10.865Z,149794.00
2019-03-13T13:13:16.581Z,149818.08
2019-03-13T13:14:37.537Z,149806.02
2019-03-13T13:15:43.833Z,149797.78
2019-03-13T13:16:49.564Z,149806.66
2019-03-13T13:17:57.342Z,149811.75
2019-03-13T13:19:02.960Z,149813.66
2019-03-13T13:20:07.898Z,149810.47
2019-03-13T13:21:13.511Z,149811.75
2019-03-13T13:22:19.109Z,149789.53
2019-03-13T13:23:24.768Z,149803.52
2019-03-13T13:24:30.404Z,149785.77
2019-03-13T13:25:36.019Z,149781.30
2019-03-13T13:26:41.587Z,149790.81
2019-03-13T13:27:47.160Z,149806.02
2019-03-13T13:28:52.746Z,149826.95
2019-03-13T13:29:58.388Z,149820.63
2019-03-13T13:31:03.617Z,149807.92
2019-03-13T13:32:09.241Z,149803.52
2019-03-13T13:33:14.838Z,149801.59
2019-03-13T13:34:20.480Z,149826.31
2019-03-13T13:35:26.190Z,149821.27
2019-03-13T13:36:31.820Z,149830.14
2019-03-13T13:37:37.392Z,149830.14
2019-03-13T13:38:42.980Z,149834.56
2019-03-13T13:39:48.540Z,149831.38
2019-03-13T13:40:54.145Z,149814.30
2019-03-13T13:41:59.756Z,149819.98
2019-03-13T13:43:05.331Z,149842.16
2019-03-13T13:44:10.958Z,149838.38
2019-03-13T13:45:27.816Z,149840.23
2019-03-13T13:46:32.739Z,149814.89
2019-03-13T13:47:38.339Z,149815.53
2019-03-13T13:48:43.906Z,149835.19
2019-03-13T13:49:59.101Z,149835.83
2019-03-13T13:50:55.216Z,149836.47
2019-03-13T13:52:00.792Z,149838.38
2019-03-13T13:53:05.656Z,149839.66
2019-03-13T13:54:11.287Z,149844.06
2019-03-13T13:55:16.859Z,149857.36
2019-03-13T13:56:22.447Z,149830.78
2019-03-13T13:57:28.050Z,149818.72
2019-03-13T13:58:33.703Z,149850.39
2019-03-13T13:59:39.272Z,149861.81
2019-03-13T14:00:44.899Z,149859.27
2019-03-13T14:01:50.488Z,149849.12
2019-03-13T14:02:56.067Z,149866.88
2019-03-13T14:04:01.639Z,149880.22
2019-03-13T14:05:06.544Z,149887.81
2019-03-13T14:06:12.199Z,149878.94
2019-03-13T14:07:17.795Z,149891.59